West Dover, VT (05356)

9:46 PM EDT on July 25, 2017 (GMT -0400)
Summit Meadows | | Change Station

Elev 1818 ft 42.94 °N, 72.85 °W | Updated 12 seconds ago

Partly Cloudy
Partly Cloudy
55.9 °F
Feels Like 55.9 °F
N
0.0
Wind Variable Wind from West

Today
High -- | Low -- °F
--% Chance of Precip.
Yesterday
High -- | Low -- °F
Precip. -- in
Pressure 30.22 in
Visibility 7.0 miles
Clouds Mostly Cloudy 4100 ft
Dew Point 54 °F
Humidity 96%
Rainfall 0.04 in
Snow Depth Not available.
5:35 AM 8:19 PM
Waxing Crescent, 9% visible
SPECI KDDH 260107Z AUTO 19003KT 7SM BKN041 14/13 A3022 RMK AO2 RAE0056 P0000 T01440133
Pressure 30.22 in
Visibility 7.0 miles
Clouds Mostly Cloudy 4100 ft
Dew Point 54 °F
Humidity 96%
Rainfall 0.04 in
Snow Depth Not available.
5:35 AM 8:19 PM
Waxing Crescent, 9% visible
SPECI KDDH 260107Z AUTO 19003KT 7SM BKN041 14/13 A3022 RMK AO2 RAE0056 P0000 T01440133

Get Severe Weather Alerts

Thanks for signing up!

Be on the lookout for a verification email in your inbox.

You'll start receiving the daily forecast at 6 AM.

×

10-Day Weather Forecast

Almanac

Astronomy

Jul. 25, 2017 Rise Set
Actual Time
Civil Twilight
Nautical Twilight
Astronomical Twilight
Moon
Length of Visible Light
Length of Day
Tomorrow will be .
, % of the Moon is Illuminated

Today's Extremes

State Highs State Lows

Community

WunderPhotos

Category 6

Welcome to Category 6. This is the collective home for Weather Underground's featured writeups by Dr. Jeff Masters (right), Bob Henson (left), Chris Burt, and other regular contributors.

Nearby

Air Quality

  Air Quality AQ Index Pollutant
Not available.

Snow Depth

Station Depth Elevation

Earthquake Activity

City Distance Mag. Time & Date
Minimum magnitude displayed is 2.5.

Coastal Water Temperatures

Place Temperature

Stations

Nearby Weather Stations

Station Location Temp. Windchill Dew Point Humidity Wind Precip. Elev Updated Type
                   

Watches & Warnings

There are currently no watches in effect.